createdAt,value
2018-09-13T07:31:04.599Z,28
2018-09-13T07:34:04.600Z,28
2018-09-13T07:37:04.627Z,29
2018-09-13T07:40:04.653Z,29
2018-09-13T07:43:04.765Z,30
2018-09-13T07:46:04.727Z,31
2018-09-13T07:49:04.739Z,33
2018-09-13T07:52:04.734Z,34
2018-09-13T07:55:04.747Z,35
2018-09-13T07:58:04.905Z,36
2018-09-13T08:01:04.834Z,35
2018-09-13T08:04:04.837Z,34
2018-09-13T08:07:04.850Z,34
2018-09-13T08:10:04.910Z,34
2018-09-13T08:13:04.905Z,34
2018-09-13T08:16:04.945Z,34
2018-09-13T08:19:04.957Z,34
2018-09-13T08:22:04.995Z,35
2018-09-13T08:25:05.125Z,36
2018-09-13T08:28:05.046Z,37
2018-09-13T08:31:05.195Z,37
2018-09-13T08:34:05.210Z,37
2018-09-13T08:37:05.294Z,36
2018-09-13T08:40:05.164Z,37
2018-09-13T08:43:05.286Z,37
2018-09-13T08:46:05.208Z,36
2018-09-13T08:49:05.230Z,35
2018-09-13T08:52:05.283Z,35
2018-09-13T08:55:05.293Z,36
2018-09-13T08:58:05.291Z,37
2018-09-13T09:01:05.329Z,36
2018-09-13T09:04:05.340Z,37
2018-09-13T09:07:05.494Z,37
2018-09-13T09:10:05.526Z,38
2018-09-13T09:13:05.543Z,38
2018-09-13T09:16:05.475Z,38
2018-09-13T09:19:05.487Z,37
2018-09-13T09:22:05.506Z,36
2018-09-13T09:25:05.528Z,35
2018-09-13T09:28:05.555Z,35
2018-09-13T09:31:05.596Z,34
2018-09-13T09:34:05.594Z,33
2018-09-13T09:37:05.627Z,33
2018-09-13T09:40:05.642Z,32
2018-09-13T09:43:05.775Z,31
2018-09-13T09:46:05.696Z,30
2018-09-13T09:49:05.816Z,29
2018-09-13T09:52:05.800Z,28
2018-09-13T09:55:05.744Z,27
2018-09-13T09:58:05.773Z,27
2018-09-13T10:01:05.783Z,26
2018-09-13T10:04:05.813Z,26
2018-09-13T10:07:05.818Z,26
2018-09-13T10:10:06.325Z,26
2018-09-13T10:13:05.851Z,27
2018-09-13T10:16:06.076Z,29
2018-09-13T10:19:05.913Z,30
2018-09-13T10:22:05.933Z,30
2018-09-13T10:25:06.030Z,30
2018-09-13T10:28:05.964Z,31
2018-09-13T10:31:06.013Z,30
2018-09-13T10:34:05.990Z,29
2018-09-13T10:37:06.022Z,29
2018-09-13T10:40:06.046Z,29
2018-09-13T10:43:06.073Z,30
2018-09-13T10:46:06.514Z,30
2018-09-13T10:49:06.082Z,30
2018-09-13T10:52:06.126Z,30
2018-09-13T10:55:06.149Z,30
2018-09-13T10:58:06.154Z,30
2018-09-13T11:01:06.631Z,30
2018-09-13T11:04:06.263Z,30
2018-09-13T11:07:06.219Z,30
2018-09-13T11:10:06.243Z,30
2018-09-13T11:16:06.311Z,30
2018-09-13T11:19:06.379Z,29
2018-09-13T11:22:06.441Z,29
2018-09-13T11:25:06.335Z,30
2018-09-13T11:28:06.798Z,30
2018-09-13T11:31:06.416Z,31
2018-09-13T11:34:06.418Z,31
2018-09-13T11:37:06.440Z,31
2018-09-13T11:40:06.544Z,31
2018-09-13T11:43:06.481Z,31
2018-09-13T11:46:06.537Z,31
2018-09-13T11:49:06.547Z,31
2018-09-13T11:52:06.669Z,31
2018-09-13T11:55:06.699Z,32
2018-09-13T11:58:06.601Z,32
2018-09-13T12:01:06.708Z,32
2018-09-13T12:04:06.771Z,34
2018-09-13T12:07:06.793Z,35
2018-09-13T12:10:06.726Z,36
2018-09-13T12:13:06.863Z,36
2018-09-13T12:16:06.909Z,36
2018-09-13T12:19:06.796Z,34
2018-09-13T12:22:06.829Z,35
2018-09-13T12:25:07.264Z,37
2018-09-13T12:28:06.873Z,38
2018-09-13T12:31:06.936Z,39
2018-09-13T12:34:07.355Z,38
2018-09-13T12:37:07.072Z,38
2018-09-13T12:40:07.017Z,38
2018-09-13T12:43:07.055Z,38
2018-09-13T12:46:07.511Z,38
2018-09-13T12:49:07.109Z,37
2018-09-13T12:52:07.189Z,37
2018-09-13T12:55:07.137Z,39
2018-09-13T12:58:07.594Z,40
2018-09-13T13:01:07.222Z,40
2018-09-13T13:04:07.253Z,40
2018-09-13T13:07:07.382Z,40
2018-09-13T13:10:07.339Z,40
2018-09-13T13:13:07.353Z,41
2018-09-13T13:16:07.385Z,40
2018-09-13T13:19:07.396Z,39
2018-09-13T13:22:07.436Z,39
2018-09-13T13:25:07.463Z,39
2018-09-13T13:28:07.599Z,37
2018-09-13T13:31:07.634Z,37
2018-09-13T13:34:07.535Z,37
2018-09-13T13:37:07.574Z,38
2018-09-13T13:40:07.610Z,38
2018-09-13T13:43:07.643Z,37
2018-09-13T13:46:07.674Z,36
2018-09-13T13:49:07.662Z,35
2018-09-13T13:52:07.692Z,34
2018-09-13T13:55:07.722Z,33
2018-09-13T13:58:07.925Z,32
2018-09-13T14:01:07.777Z,31
2018-09-13T14:04:07.773Z,30
2018-09-13T14:07:07.800Z,29
2018-09-13T14:10:07.903Z,29
2018-09-13T14:13:07.846Z,29
2018-09-13T14:16:07.981Z,28
2018-09-13T14:19:08.003Z,28
2018-09-13T14:22:08.308Z,28
2018-09-13T14:25:07.929Z,28
2018-09-13T14:28:07.922Z,28
2018-09-13T14:31:07.961Z,28
2018-09-13T14:34:08.392Z,28
2018-09-13T14:37:08.001Z,29
2018-09-13T14:40:08.084Z,30
2018-09-13T14:43:08.057Z,30
2018-09-13T14:46:08.087Z,30
2018-09-13T14:49:08.096Z,29
2018-09-13T14:52:08.100Z,28
2018-09-13T14:55:08.094Z,28
2018-09-13T14:58:08.129Z,27
2018-09-13T15:01:08.171Z,27
2018-09-13T15:04:08.147Z,26
2018-09-13T15:07:08.179Z,26
2018-09-13T15:10:08.313Z,25
2018-09-13T15:13:08.236Z,25
2018-09-13T15:31:08.380Z,23
2018-09-13T16:04:08.401Z,21
2018-09-13T16:07:08.811Z,21
2018-09-13T16:10:08.406Z,21
2018-09-13T16:13:08.623Z,20
2018-09-13T16:16:08.433Z,20
2018-09-13T16:19:08.439Z,20
2018-09-13T16:22:08.439Z,20
2018-09-13T16:25:08.554Z,20
2018-09-13T16:28:08.507Z,20
2018-09-13T16:31:08.529Z,20
2018-09-13T16:34:08.616Z,19
2018-09-13T16:37:08.491Z,19
2018-09-13T16:55:08.550Z,19
2018-09-13T16:58:08.529Z,19
2018-09-13T17:01:08.668Z,19
2018-09-13T17:04:08.572Z,19
2018-09-13T17:07:08.574Z,19
2018-09-13T17:10:08.683Z,19
